Time;durP1;ratioP1;P1;durP2;ratioP2;P2;SDS_P1;SDS_P2;PMS_P1;PMS_P2;Temp;Humidity;BMP_temperature;BMP_pressure;BME280_temperature;BME280_humidity;BME280_pressure;Samples;Min_cycle;Max_cycle;Signal;HPM_P1;HPM_P2
2020/12/11 00:00:59;;;;;;;62.65;23.75;;;6.10;98.90;;;;;;5012085;28;20042;-70
2020/12/11 00:03:25;;;;;;;62.30;25.13;;;6.00;98.90;;;;;;5012865;28;20053;-70
2020/12/11 00:05:50;;;;;;;59.13;22.42;;;6.10;98.80;;;;;;5013578;28;20103;-71
2020/12/11 00:08:16;;;;;;;67.72;25.38;;;6.10;98.90;;;;;;5011769;28;20475;-71
2020/12/11 00:10:42;;;;;;;62.78;23.77;;;6.00;98.90;;;;;;5012606;28;20112;-71
2020/12/11 00:13:07;;;;;;;64.03;23.02;;;5.90;98.90;;;;;;5012687;28;20050;-70
2020/12/11 00:15:33;;;;;;;66.20;23.63;;;6.10;99.00;;;;;;5013030;28;20022;-70
2020/12/11 00:17:59;;;;;;;63.35;23.58;;;6.10;98.80;;;;;;5014237;28;20490;-71
2020/12/11 00:20:24;;;;;;;60.22;23.10;;;6.30;98.80;;;;;;5012329;28;20361;-71
2020/12/11 00:22:50;;;;;;;67.55;24.88;;;6.20;98.70;;;;;;5012757;28;20100;-71
2020/12/11 00:25:16;;;;;;;61.80;23.77;;;6.30;98.70;;;;;;5012472;28;20053;-70
2020/12/11 00:27:41;;;;;;;66.55;24.33;;;6.20;98.70;;;;;;5012049;28;20042;-70
2020/12/11 00:30:07;;;;;;;59.95;23.27;;;6.20;98.70;;;;;;5013922;28;20445;-70
2020/12/11 00:32:35;;;;;;;60.92;23.58;;;6.20;98.70;;;;;;5012458;28;20034;-71
2020/12/11 00:35:03;;;;;;;74.63;24.92;;;6.10;98.70;;;;;;5012606;28;20093;-70
2020/12/11 00:37:47;;;;;;;62.65;23.13;;;5.90;98.90;;;;;;5012268;28;20045;-71
2020/12/11 00:40:12;;;;;;;63.65;22.60;;;6.00;99.00;;;;;;5011371;28;20029;-71
2020/12/11 00:42:38;;;;;;;64.15;23.50;;;6.00;98.90;;;;;;5012410;28;20036;-71
2020/12/11 00:45:04;;;;;;;61.67;22.92;;;6.00;98.90;;;;;;5014027;28;20029;-71
2020/12/11 00:47:29;;;;;;;60.78;23.55;;;6.10;98.90;;;;;;5011712;28;20061;-72
2020/12/11 00:49:55;;;;;;;64.28;23.30;;;6.10;98.80;;;;;;5012176;28;20431;-71
2020/12/11 00:52:20;;;;;;;66.72;23.58;;;6.10;98.70;;;;;;5011135;28;20030;-70
2020/12/11 00:54:46;;;;;;;58.00;21.52;;;6.00;98.90;;;;;;5010734;28;20091;-70
2020/12/11 00:57:12;;;;;;;54.55;22.33;;;6.00;99.00;;;;;;5013571;28;20356;-72
2020/12/11 00:59:37;;;;;;;58.85;23.17;;;6.00;99.00;;;;;;5011135;28;20060;-70
2020/12/11 01:02:03;;;;;;;58.00;21.55;;;5.90;98.80;;;;;;5012013;28;20133;-70
2020/12/11 01:04:28;;;;;;;58.95;24.30;;;5.90;99.20;;;;;;5011451;28;20348;-71
2020/12/11 01:06:54;;;;;;;62.10;22.65;;;5.90;99.00;;;;;;5011555;28;20099;-71
2020/12/11 01:09:20;;;;;;;58.97;22.95;;;6.00;99.00;;;;;;5011956;28;20022;-71
2020/12/11 01:11:45;;;;;;;68.57;23.55;;;5.90;99.00;;;;;;5012335;28;20018;-69
2020/12/11 01:14:11;;;;;;;58.83;21.73;;;5.90;99.20;;;;;;5011588;28;20034;-70
2020/12/11 01:16:37;;;;;;;58.20;21.95;;;5.90;99.10;;;;;;5011602;28;20029;-70
2020/12/11 01:19:02;;;;;;;60.75;22.08;;;5.90;99.10;;;;;;5010669;28;20073;-70
2020/12/11 01:21:28;;;;;;;57.97;21.77;;;6.00;99.00;;;;;;5011830;28;20049;-71
2020/12/11 01:23:56;;;;;;;57.22;22.65;;;6.00;99.10;;;;;;5013023;28;20036;-72
2020/12/11 01:26:22;;;;;;;;;;;5.90;99.00;;;;;;5012005;28;20030;-72
2020/12/11 01:28:47;;;;;;;55.50;20.27;;;5.90;99.10;;;;;;5010798;28;19979;-70
2020/12/11 01:31:18;;;;;;;56.42;22.45;;;5.90;99.10;;;;;;5011559;28;20037;-70
2020/12/11 01:33:46;;;;;;;52.08;20.60;;;5.90;99.20;;;;;;5011454;28;20049;-71
2020/12/11 01:36:12;;;;;;;;;;;5.80;99.10;;;;;;5013627;28;20347;-71
2020/12/11 01:38:37;;;;;;;53.75;20.40;;;5.90;99.00;;;;;;5010442;28;20276;-70
2020/12/11 01:41:03;;;;;;;56.25;21.38;;;5.80;99.10;;;;;;5011764;28;20034;-70
2020/12/11 01:43:29;;;;;;;61.30;21.48;;;5.90;99.10;;;;;;5011364;28;20046;-70
2020/12/11 01:45:54;;;;;;;49.53;21.25;;;5.80;99.10;;;;;;5011517;28;20037;-71
2020/12/11 01:48:20;;;;;;;54.85;19.88;;;5.80;99.10;;;;;;5011288;28;20052;-70
2020/12/11 01:50:46;;;;;;;43.30;20.23;;;5.80;99.20;;;;;;5012854;28;20049;-70
2020/12/11 01:53:12;;;;;;;59.17;22.30;;;5.80;99.30;;;;;;5011358;28;20049;-71
2020/12/11 01:55:39;;;;;;;51.50;19.90;;;5.80;99.30;;;;;;5011476;28;20038;-70
2020/12/11 01:58:13;;;;;;;48.67;19.02;;;5.70;99.40;;;;;;5011325;28;20113;-71
2020/12/11 02:00:41;;;;;;;56.47;20.33;;;5.70;99.30;;;;;;5011413;28;20026;-70
2020/12/11 02:03:09;;;;;;;58.42;21.88;;;5.70;99.30;;;;;;5012007;28;20547;-71
2020/12/11 02:05:35;;;;;;;;;;;5.70;99.40;;;;;;5010359;28;20049;-69
2020/12/11 02:08:01;;;;;;;47.65;18.27;;;5.60;99.40;;;;;;5011458;28;19910;-71
2020/12/11 02:10:27;;;;;;;49.15;18.85;;;5.50;99.40;;;;;;5010952;28;20058;-70
2020/12/11 02:12:53;;;;;;;56.78;20.65;;;5.50;99.60;;;;;;5010045;28;20034;-71
2020/12/11 02:15:19;;;;;;;54.78;20.60;;;5.60;99.50;;;;;;5011181;28;20029;-70
2020/12/11 02:17:45;;;;;;;53.72;20.75;;;5.60;99.50;;;;;;5012680;28;20522;-71
2020/12/11 02:20:10;;;;;;;47.55;18.30;;;5.60;99.50;;;;;;5011003;28;20041;-71
2020/12/11 02:22:36;;;;;;;58.75;20.10;;;5.60;99.40;;;;;;5011248;28;20046;-71
2020/12/11 02:25:03;;;;;;;53.85;20.60;;;5.60;99.50;;;;;;5010998;28;20041;-70
2020/12/11 02:27:28;;;;;;;51.50;18.88;;;5.70;99.50;;;;;;5011794;28;20527;-70
2020/12/11 02:29:54;;;;;;;48.15;18.67;;;5.60;99.40;;;;;;5016168;28;20117;-71
2020/12/11 02:32:20;;;;;;;45.47;18.60;;;5.60;99.40;;;;;;5014442;28;20030;-71
2020/12/11 02:34:46;;;;;;;45.15;17.75;;;5.60;99.40;;;;;;5013696;28;20042;-70
2020/12/11 02:37:13;;;;;;;45.92;18.75;;;5.70;99.30;;;;;;5014638;28;20062;-71
2020/12/11 02:39:39;;;;;;;44.53;17.23;;;5.70;99.10;;;;;;5014424;28;20060;-71
2020/12/11 02:42:06;;;;;;;43.65;17.08;;;5.60;99.00;;;;;;5016180;28;20102;-70
2020/12/11 02:44:32;;;;;;;43.77;16.17;;;5.60;98.80;;;;;;5014325;28;20411;-70
2020/12/11 02:46:58;;;;;;;38.20;15.63;;;5.60;98.60;;;;;;5014462;28;20070;-70
2020/12/11 02:49:24;;;;;;;41.55;15.05;;;5.60;98.50;;;;;;5014297;28;20101;-71
2020/12/11 02:51:49;;;;;;;40.88;16.60;;;5.60;98.40;;;;;;5013956;28;20096;-70
2020/12/11 02:54:15;;;;;;;38.88;15.57;;;5.50;98.20;;;;;;5015634;28;20112;-70
2020/12/11 02:56:41;;;;;;;36.13;15.75;;;5.50;98.20;;;;;;5014017;28;20052;-71
2020/12/11 02:59:06;;;;;;;39.65;15.45;;;5.50;98.10;;;;;;5014168;28;20046;-70
2020/12/11 03:01:32;;;;;;;38.53;14.77;;;5.50;98.10;;;;;;5014101;28;20049;-71
2020/12/11 03:03:58;;;;;;;35.20;15.10;;;5.50;98.00;;;;;;5013931;28;20076;-71
2020/12/11 03:06:30;;;;;;;40.97;17.13;;;5.60;98.00;;;;;;5013907;28;20494;-70
2020/12/11 03:08:57;;;;;;;37.88;15.70;;;5.60;98.00;;;;;;5015453;28;20105;-70
2020/12/11 03:11:23;;;;;;;40.55;16.02;;;5.50;97.90;;;;;;5013754;28;20498;-70
2020/12/11 03:13:49;;;;;;;38.55;16.40;;;5.50;97.90;;;;;;5012749;28;20030;-70
2020/12/11 03:16:16;;;;;;;40.88;17.00;;;5.50;98.00;;;;;;5013350;28;20026;-71
2020/12/11 03:18:43;;;;;;;37.40;14.70;;;5.50;97.80;;;;;;5013730;28;20088;-69
2020/12/11 03:21:09;;;;;;;38.17;14.63;;;5.50;98.00;;;;;;5015304;28;20368;-71
2020/12/11 03:23:35;;;;;;;40.72;17.50;;;5.50;98.00;;;;;;5013991;28;20255;-70
2020/12/11 03:26:00;;;;;;;39.08;16.02;;;5.40;98.20;;;;;;5013994;28;20037;-70
2020/12/11 03:28:26;;;;;;;37.95;16.60;;;5.50;98.10;;;;;;5013313;28;20104;-70
2020/12/11 03:30:51;;;;;;;43.50;15.75;;;5.60;98.20;;;;;;5012919;28;20049;-71
2020/12/11 03:33:17;;;;;;;36.35;15.40;;;5.50;98.10;;;;;;5013415;28;20026;-69
2020/12/11 03:35:43;;;;;;;31.05;14.10;;;5.50;97.90;;;;;;5014950;28;20037;-71
2020/12/11 03:38:08;;;;;;;34.33;15.07;;;5.50;97.60;;;;;;5011977;28;20121;-70
2020/12/11 03:40:34;;;;;;;37.13;15.07;;;5.50;97.60;;;;;;5013695;28;20038;-71
2020/12/11 03:43:00;;;;;;;32.83;14.48;;;5.50;97.40;;;;;;5013231;28;20042;-71
2020/12/11 03:45:25;;;;;;;31.75;14.30;;;5.50;97.30;;;;;;5012873;28;20030;-70
2020/12/11 03:47:51;;;;;;;34.53;14.23;;;5.40;97.30;;;;;;5014798;28;20022;-70
2020/12/11 03:50:17;;;;;;;30.58;13.77;;;5.50;97.30;;;;;;5013010;28;20117;-71
2020/12/11 03:52:42;;;;;;;30.30;14.02;;;5.40;97.20;;;;;;5013175;28;20061;-71
2020/12/11 03:55:08;;;;;;;34.45;15.32;;;5.40;97.20;;;;;;5013192;28;20046;-71
2020/12/11 03:57:33;;;;;;;36.55;16.13;;;5.50;97.20;;;;;;5013156;28;20495;-73
2020/12/11 03:59:59;;;;;;;30.80;15.40;;;5.40;97.10;;;;;;5014301;28;20014;-71
2020/12/11 04:02:25;;;;;;;30.67;14.30;;;5.40;97.10;;;;;;5012974;28;20099;-71
2020/12/11 04:04:50;;;;;;;38.65;15.85;;;5.40;97.10;;;;;;5012999;28;20038;-70
2020/12/11 04:07:16;;;;;;;30.10;14.38;;;5.50;97.10;;;;;;5012778;28;20470;-70
2020/12/11 04:09:42;;;;;;;32.47;15.63;;;5.40;97.00;;;;;;5012692;28;20037;-70
2020/12/11 04:12:07;;;;;;;29.60;14.70;;;5.50;97.00;;;;;;5014919;28;20026;-70
2020/12/11 04:14:33;;;;;;;33.42;15.60;;;5.40;96.90;;;;;;5012949;28;20034;-70
2020/12/11 04:16:59;;;;;;;30.48;14.57;;;5.30;96.90;;;;;;5011772;28;20038;-70
2020/12/11 04:19:25;;;;;;;32.50;15.15;;;5.40;97.00;;;;;;5012589;28;20096;-70
2020/12/11 04:21:53;;;;;;;32.55;14.50;;;5.50;97.00;;;;;;5011545;28;20045;-71
2020/12/11 04:24:21;;;;;;;32.22;14.15;;;5.40;96.90;;;;;;5012578;28;20034;-70
2020/12/11 04:26:47;;;;;;;31.45;15.60;;;5.40;96.90;;;;;;5014087;28;20037;-70
2020/12/11 04:29:13;;;;;;;31.73;14.85;;;5.40;96.90;;;;;;5012463;28;20038;-74
2020/12/11 04:31:39;;;;;;;26.98;14.15;;;5.40;96.90;;;;;;5011303;28;20046;-70
2020/12/11 04:34:05;;;;;;;31.23;15.18;;;5.40;96.80;;;;;;5012457;28;20030;-70
2020/12/11 04:36:30;;;;;;;31.85;14.55;;;5.40;96.90;;;;;;5011461;28;20025;-70
2020/12/11 04:38:56;;;;;;;32.35;15.82;;;5.40;96.80;;;;;;5013769;28;20341;-70
2020/12/11 04:41:27;;;;;;;31.42;14.38;;;5.50;96.80;;;;;;5012403;28;20472;-70
2020/12/11 04:43:55;;;;;;;33.63;14.90;;;5.40;96.80;;;;;;5011232;28;20073;-71
2020/12/11 04:46:28;;;;;;;28.77;14.43;;;5.50;96.80;;;;;;5012360;28;20333;-71
2020/12/11 04:48:56;;;;;;;27.75;13.50;;;5.40;96.80;;;;;;5011989;28;20034;-71
2020/12/11 04:51:28;;;;;;;29.63;14.13;;;5.50;96.80;;;;;;5012199;28;20061;-70
2020/12/11 04:53:53;;;;;;;32.53;14.07;;;5.50;96.80;;;;;;5013556;28;20060;-72
2020/12/11 04:56:22;;;;;;;25.70;12.32;;;5.50;96.80;;;;;;5012011;28;20033;-70
2020/12/11 04:58:51;;;;;;;28.50;13.68;;;5.50;96.80;;;;;;5012062;28;20129;-72
2020/12/11 05:01:30;;;;;;;25.60;13.00;;;5.50;96.80;;;;;;5011705;28;20054;-71
2020/12/11 05:03:57;;;;;;;23.83;13.52;;;5.50;96.70;;;;;;5011858;28;20030;-71
2020/12/11 05:06:24;;;;;;;27.60;13.10;;;5.40;96.70;;;;;;5012233;28;20026;-71
2020/12/11 05:09:11;;;;;;;27.70;13.90;;;5.60;96.90;;;;;;5013342;28;20018;-73
2020/12/11 05:11:37;;;;;;;25.30;12.48;;;5.50;96.70;;;;;;5011978;28;20096;-72
2020/12/11 05:14:03;;;;;;;22.15;11.80;;;5.40;96.60;;;;;;5011974;28;20050;-71
2020/12/11 05:16:28;;;;;;;23.17;12.10;;;5.40;96.50;;;;;;5011770;28;20042;-71
2020/12/11 05:19:04;;;;;;;23.10;12.40;;;5.30;96.50;;;;;;5011692;28;20046;-71
2020/12/11 05:21:31;;;;;;;21.48;11.27;;;5.40;96.70;;;;;;5012150;28;20034;-70
2020/12/11 05:23:57;;;;;;;22.48;11.50;;;5.50;96.50;;;;;;5013193;28;20030;-72
2020/12/11 05:26:23;;;;;;;21.85;11.48;;;5.50;96.30;;;;;;5011620;28;20045;-71
2020/12/11 05:28:50;;;;;;;20.08;10.93;;;5.40;96.20;;;;;;5011840;28;20026;-70
2020/12/11 05:31:15;;;;;;;18.35;10.70;;;5.50;96.10;;;;;;5011599;28;20030;-69
2020/12/11 05:34:04;;;;;;;19.83;10.57;;;5.50;96.10;;;;;;5011350;28;20448;-70
2020/12/11 05:36:54;;;;;;;21.50;10.70;;;5.40;95.90;;;;;;5011568;28;20022;-70
2020/12/11 05:39:25;;;;;;;21.67;11.00;;;5.50;95.90;;;;;;5011737;28;20093;-71
2020/12/11 05:41:51;;;;;;;22.35;11.20;;;5.50;95.80;;;;;;5012973;28;20018;-70
2020/12/11 05:44:37;;;;;;;20.63;10.32;;;5.60;95.90;;;;;;5011480;28;20049;-71
2020/12/11 05:47:35;;;;;;;22.58;10.52;;;5.60;95.80;;;;;;5011454;28;20390;-71
2020/12/11 05:50:13;;;;;;;19.08;10.15;;;5.60;95.50;;;;;;4978789;28;20033;-70
2020/12/11 05:52:40;;;;;;;20.73;11.55;;;5.50;95.40;;;;;;5011484;28;20121;-70
2020/12/11 05:55:16;;;;;;;18.33;10.15;;;5.50;95.50;;;;;;5011157;28;20026;-71
2020/12/11 05:57:42;;;;;;;18.88;10.70;;;5.50;95.40;;;;;;5011618;28;20038;-70
2020/12/11 06:00:08;;;;;;;18.45;10.38;;;5.50;95.30;;;;;;5011768;28;20109;-70
2020/12/11 06:02:36;;;;;;;21.35;11.20;;;5.50;95.40;;;;;;5012216;28;20061;-72
2020/12/11 06:05:02;;;;;;;21.63;10.93;;;5.50;95.40;;;;;;5015131;28;20038;-71
2020/12/11 06:07:31;;;;;;;21.63;11.20;;;5.50;95.50;;;;;;5014142;28;20045;-70
2020/12/11 06:09:58;;;;;;;20.75;10.77;;;5.50;95.40;;;;;;5014884;28;20099;-70
2020/12/11 06:12:31;;;;;;;19.42;10.32;;;5.50;95.30;;;;;;5015115;28;20376;-69
2020/12/11 06:14:59;;;;;;;20.52;11.32;;;5.50;95.30;;;;;;5016384;28;20404;-72
2020/12/11 06:17:30;;;;;;;25.10;11.02;;;5.50;95.30;;;;;;5014735;28;20034;-71
2020/12/11 06:19:59;;;;;;;19.52;10.40;;;5.50;95.20;;;;;;5014012;28;20030;-71
2020/12/11 06:22:25;;;;;;;19.67;11.10;;;5.50;95.10;;;;;;5014946;28;20049;-70
2020/12/11 06:24:50;;;;;;;23.55;11.05;;;5.50;95.00;;;;;;5014593;28;20133;-70
2020/12/11 06:27:29;;;;;;;22.30;12.07;;;5.50;95.10;;;;;;5016377;28;20037;-71
2020/12/11 06:29:55;;;;;;;17.10;9.65;;;5.80;95.20;;;;;;5014600;28;20038;-72
2020/12/11 06:32:34;;;;;;;19.35;10.10;;;5.50;95.20;;;;;;5013498;28;20068;-71
2020/12/11 06:35:13;;;;;;;21.25;11.07;;;5.50;95.00;;;;;;5014892;28;20124;-71
2020/12/11 06:37:40;;;;;;;21.00;11.15;;;5.50;94.90;;;;;;5014658;28;20459;-70
2020/12/11 06:40:06;;;;;;;21.55;10.05;;;5.60;94.80;;;;;;5014515;28;20037;-73
2020/12/11 06:42:35;;;;;;;20.55;11.10;;;5.50;94.70;;;;;;5013510;28;20052;-73
2020/12/11 06:45:21;;;;;;;27.83;11.57;;;5.50;94.80;;;;;;5016036;28;20348;-70
2020/12/11 06:47:47;;;;;;;20.92;10.43;;;5.60;94.90;;;;;;5014843;28;20026;-72
2020/12/11 06:50:13;;;;;;;16.92;10.10;;;5.50;94.80;;;;;;5014655;28;20160;-73
2020/12/11 06:52:39;;;;;;;17.80;10.75;;;5.50;94.80;;;;;;5001256;28;20121;-72
2020/12/11 06:55:04;;;;;;;18.90;9.98;;;5.70;95.00;;;;;;4995081;28;20030;-70
2020/12/11 06:57:35;;;;;;;19.88;10.38;;;5.60;94.70;;;;;;4994876;28;20117;-70
2020/12/11 07:00:34;;;;;;;20.20;10.40;;;5.60;94.50;;;;;;4996456;28;20037;-70
2020/12/11 07:03:29;;;;;;;17.63;9.13;;;5.60;94.40;;;;;;4962532;28;20065;-71
2020/12/11 07:05:59;;;;;;;15.70;9.00;;;5.40;94.30;;;;;;4994805;28;20450;-70
2020/12/11 07:08:24;;;;;;;17.17;9.35;;;5.30;94.40;;;;;;4994738;28;20038;-70
2020/12/11 07:10:50;;;;;;;16.35;9.00;;;5.30;94.50;;;;;;4994621;28;20034;-70
2020/12/11 07:13:16;;;;;;;16.08;8.90;;;5.30;94.40;;;;;;4993989;28;20030;-70
2020/12/11 07:15:41;;;;;;;16.08;9.40;;;5.30;94.40;;;;;;4994217;28;20041;-72
2020/12/11 07:18:15;;;;;;;18.08;9.35;;;5.30;94.40;;;;;;4995276;28;20038;-73
2020/12/11 07:20:56;;;;;;;19.13;9.13;;;5.30;94.30;;;;;;4994281;28;20046;-71
2020/12/11 07:23:22;;;;;;;14.55;8.43;;;5.30;94.30;;;;;;4994246;28;20371;-72
2020/12/11 07:25:49;;;;;;;18.75;9.52;;;5.30;94.40;;;;;;4994508;28;20431;-70
2020/12/11 07:28:15;;;;;;;18.83;10.00;;;5.20;94.30;;;;;;4994447;28;20401;-70
2020/12/11 07:30:45;;;;;;;19.38;9.95;;;5.20;94.40;;;;;;4993988;28;20457;-70
2020/12/11 07:33:11;;;;;;;17.27;9.70;;;5.20;94.40;;;;;;4994748;28;20034;-70
2020/12/11 07:35:49;;;;;;;17.27;9.45;;;5.30;94.50;;;;;;4993943;28;20046;-70
2020/12/11 07:38:17;;;;;;;16.63;9.68;;;5.30;94.40;;;;;;4994141;28;20030;-70
2020/12/11 07:40:44;;;;;;;16.98;10.05;;;5.20;94.40;;;;;;4994245;28;20385;-69
2020/12/11 07:43:11;;;;;;;18.55;10.25;;;5.30;94.40;;;;;;4994056;28;20382;-69
2020/12/11 07:45:38;;;;;;;17.38;9.60;;;5.30;94.30;;;;;;4993981;28;20041;-70
2020/12/11 07:48:04;;;;;;;18.42;9.63;;;5.30;94.50;;;;;;4994280;28;20338;-70
2020/12/11 07:50:31;;;;;;;19.75;10.05;;;5.60;94.60;;;;;;4993877;28;20030;-71
2020/12/11 07:52:58;;;;;;;16.65;9.32;;;5.40;94.50;;;;;;4993596;28;20079;-69
2020/12/11 07:55:29;;;;;;;19.48;9.90;;;5.50;94.40;;;;;;4993591;28;20027;-70
2020/12/11 07:57:58;;;;;;;17.50;9.30;;;5.40;94.40;;;;;;4993802;28;20121;-70
2020/12/11 08:00:25;;;;;;;17.20;9.48;;;5.40;94.30;;;;;;4993778;28;20081;-70
2020/12/11 08:03:05;;;;;;;16.10;9.18;;;5.30;94.40;;;;;;4995028;28;20403;-70
2020/12/11 08:05:31;;;;;;;16.20;9.35;;;5.40;94.40;;;;;;4993690;28;20360;-69
2020/12/11 08:07:58;;;;;;;18.23;9.93;;;5.40;94.40;;;;;;4993613;28;20108;-71
2020/12/11 08:10:32;;;;;;;21.55;9.50;;;5.40;94.60;;;;;;4993576;28;20381;-70
2020/12/11 08:13:07;;;;;;;16.85;9.75;;;5.30;94.40;;;;;;4993449;28;20030;-68
2020/12/11 08:15:34;;;;;;;20.42;9.98;;;5.30;94.60;;;;;;4993705;28;20026;-70
2020/12/11 08:18:13;;;;;;;18.27;9.95;;;5.30;94.60;;;;;;4994985;28;20326;-69
2020/12/11 08:20:52;;;;;;;17.52;10.18;;;5.30;94.60;;;;;;4993389;28;20050;-69
2020/12/11 08:23:19;;;;;;;18.67;10.07;;;5.30;94.50;;;;;;4993079;28;20156;-71
2020/12/11 08:25:45;;;;;;;18.02;10.13;;;5.40;94.50;;;;;;4992395;28;20042;-70
2020/12/11 08:28:10;;;;;;;16.73;9.13;;;5.30;94.40;;;;;;4992948;28;20117;-70
2020/12/11 08:30:36;;;;;;;17.05;9.50;;;5.30;94.40;;;;;;4992266;28;20125;-69
2020/12/11 08:33:12;;;;;;;20.08;10.30;;;5.40;94.50;;;;;;4994613;28;20030;-70
2020/12/11 08:35:38;;;;;;;17.02;9.60;;;5.40;94.50;;;;;;4993204;28;20497;-69
2020/12/11 08:38:05;;;;;;;19.77;10.82;;;5.50;94.50;;;;;;4993036;28;20108;-70
2020/12/11 08:40:45;;;;;;;19.00;10.20;;;5.40;94.30;;;;;;4992853;28;20050;-70
2020/12/11 08:43:47;;;;;;;17.58;9.45;;;5.40;94.30;;;;;;4992663;28;20030;-70
2020/12/11 08:46:25;;;;;;;19.75;9.98;;;5.40;94.30;;;;;;4989801;28;20041;-69
2020/12/11 08:51:30;;;;;;;17.98;9.40;;;5.40;94.40;;;;;;4993104;28;20088;-70
2020/12/11 08:53:56;;;;;;;15.23;9.10;;;5.50;94.40;;;;;;4993966;28;20089;-70
2020/12/11 08:56:23;;;;;;;20.38;10.38;;;5.50;94.30;;;;;;4992706;28;20042;-69
2020/12/11 08:58:49;;;;;;;20.10;10.27;;;5.60;94.30;;;;;;4992947;28;20084;-70
2020/12/11 09:01:15;;;;;;;26.63;14.50;;;5.50;94.20;;;;;;4991419;28;20365;-68
2020/12/11 09:03:40;;;;;;;24.33;12.55;;;5.60;94.40;;;;;;4992288;28;20106;-70
2020/12/11 09:06:06;;;;;;;23.08;11.65;;;5.60;94.30;;;;;;4993851;28;20027;-69
2020/12/11 09:08:32;;;;;;;22.02;9.93;;;5.60;94.40;;;;;;4992500;28;20041;-71
2020/12/11 09:10:57;;;;;;;17.70;9.95;;;5.60;94.30;;;;;;4992360;28;20092;-71
2020/12/11 09:13:23;;;;;;;15.63;8.98;;;5.60;94.30;;;;;;4992531;28;20034;-71
2020/12/11 09:15:49;;;;;;;20.45;10.48;;;5.60;94.40;;;;;;4992429;28;20448;-71
2020/12/11 09:18:15;;;;;;;19.25;10.38;;;5.70;94.50;;;;;;4993287;28;20030;-70
2020/12/11 09:20:40;;;;;;;21.52;10.85;;;5.70;94.40;;;;;;4992143;28;20461;-69
2020/12/11 09:23:06;;;;;;;18.88;10.18;;;5.60;94.40;;;;;;4992115;28;20429;-71
2020/12/11 09:25:32;;;;;;;18.42;9.93;;;5.60;94.40;;;;;;4991136;28;20046;-71
2020/12/11 09:27:57;;;;;;;19.13;10.52;;;5.60;94.30;;;;;;4991332;28;20030;-70
2020/12/11 09:30:33;;;;;;;19.55;10.23;;;5.60;94.30;;;;;;4992227;28;20034;-71
2020/12/11 09:35:26;;;;;;;18.77;9.80;;;5.60;94.30;;;;;;4992274;28;20062;-72
2020/12/11 09:37:56;;;;;;;;;;;5.70;94.60;;;;;;4994474;28;20042;-70
2020/12/11 09:46:03;;;;;;;21.75;11.15;;;5.70;94.30;;;;;;4996250;28;20100;-70
2020/12/11 09:48:40;;;;;;;22.13;10.40;;;5.70;94.30;;;;;;4995873;28;20057;-71
2020/12/11 09:56:28;;;;;;;19.00;10.07;;;5.70;94.30;;;;;;4996248;28;20097;-71
2020/12/11 09:58:59;;;;;;;22.25;10.52;;;5.70;94.30;;;;;;4995774;28;20066;-70
2020/12/11 10:01:27;;;;;;;17.02;9.50;;;5.70;94.30;;;;;;4996273;28;20034;-71
2020/12/11 10:03:54;;;;;;;;;;;5.70;94.30;;;;;;4995977;28;20026;-69
2020/12/11 10:06:26;;;;;;;21.87;10.70;;;5.80;94.30;;;;;;4995604;28;20265;-70
2020/12/11 10:08:53;;;;;;;18.05;9.40;;;5.70;94.30;;;;;;4996026;28;20481;-71
2020/12/11 10:11:20;;;;;;;21.27;10.48;;;5.80;94.30;;;;;;4995743;28;20046;-71
2020/12/11 10:13:52;;;;;;;22.17;10.77;;;5.70;94.20;;;;;;4995670;28;20045;-72
2020/12/11 10:16:18;;;;;;;21.13;10.45;;;5.70;94.10;;;;;;4994667;28;20432;-70
2020/12/11 10:18:44;;;;;;;23.60;10.98;;;5.70;94.30;;;;;;4994531;28;20042;-71
2020/12/11 10:21:13;;;;;;;22.35;10.73;;;5.80;94.30;;;;;;4996150;28;20057;-69
2020/12/11 10:23:39;;;;;;;22.33;10.32;;;5.80;94.20;;;;;;4995448;28;20038;-71
2020/12/11 10:26:05;;;;;;;21.85;11.02;;;5.80;94.20;;;;;;4995343;28;20368;-70
2020/12/11 10:28:31;;;;;;;23.40;11.75;;;6.10;94.30;;;;;;4995608;28;20062;-70
2020/12/11 10:30:57;;;;;;;21.92;10.80;;;5.90;94.20;;;;;;4995370;28;20050;-69
2020/12/11 10:33:23;;;;;;;29.30;11.93;;;5.90;94.30;;;;;;4995447;28;20049;-70
2020/12/11 10:35:49;;;;;;;22.33;10.90;;;6.00;94.20;;;;;;4997102;28;20019;-70
2020/12/11 10:38:14;;;;;;;23.33;10.55;;;6.10;94.30;;;;;;4994873;28;20038;-70
2020/12/11 10:40:41;;;;;;;20.70;10.80;;;6.10;94.10;;;;;;4995286;28;20035;-70
2020/12/11 10:43:06;;;;;;;25.48;11.27;;;6.20;94.20;;;;;;4993522;28;20034;-71
2020/12/11 10:45:32;;;;;;;26.45;12.90;;;6.40;94.40;;;;;;4994686;28;20022;-71
2020/12/11 10:47:58;;;;;;;27.13;12.80;;;6.50;94.50;;;;;;4996235;28;20034;-70
2020/12/11 10:50:23;;;;;;;32.20;12.75;;;6.40;94.40;;;;;;4994541;28;20034;-70
2020/12/11 10:52:49;;;;;;;29.42;13.80;;;6.50;94.60;;;;;;4994418;28;20396;-70
2020/12/11 10:55:14;;;;;;;27.23;12.65;;;6.50;94.70;;;;;;4994721;28;20030;-71
2020/12/11 10:57:41;;;;;;;38.00;14.10;;;6.50;94.80;;;;;;4994891;28;20080;-69
2020/12/11 11:00:06;;;;;;;31.00;13.38;;;6.60;94.90;;;;;;4996559;28;20419;-71
2020/12/11 11:02:32;;;;;;;32.30;12.75;;;6.70;95.00;;;;;;4994880;28;20480;-69
2020/12/11 11:04:58;;;;;;;29.92;13.70;;;6.70;94.90;;;;;;4994524;28;20035;-69
2020/12/11 11:07:27;;;;;;;37.97;16.75;;;6.90;94.80;;;;;;4994879;28;20038;-70
2020/12/11 11:13:05;;;;;;;27.98;12.55;;;6.80;94.60;;;;;;4994485;28;20444;-68
2020/12/11 11:18:16;;;;;;;26.85;11.18;;;6.80;93.90;;;;;;4995900;28;20026;-68
2020/12/11 11:28:32;;;;;;;22.48;10.75;;;6.70;93.30;;;;;;4991161;28;20039;-70
2020/12/11 11:30:57;;;;;;;21.20;10.57;;;6.70;93.30;;;;;;4994428;28;20089;-69
2020/12/11 11:33:23;;;;;;;21.60;10.82;;;6.70;93.30;;;;;;4994219;28;20125;-70
2020/12/11 11:35:49;;;;;;;23.13;10.93;;;6.60;93.10;;;;;;4994638;28;20018;-70
2020/12/11 11:38:17;;;;;;;21.50;11.05;;;6.60;93.30;;;;;;4994344;28;20113;-70
2020/12/11 11:40:44;;;;;;;20.75;10.23;;;6.60;93.20;;;;;;4994379;28;20527;-70
2020/12/11 11:43:09;;;;;;;23.95;10.13;;;6.70;93.20;;;;;;4994239;28;20054;-70
2020/12/11 11:45:37;;;;;;;23.30;11.13;;;6.70;93.20;;;;;;4994165;28;20058;-73
2020/12/11 11:48:08;;;;;;;20.35;10.90;;;6.70;93.40;;;;;;4995422;28;20026;-72
2020/12/11 11:53:05;;;;;;;24.52;11.30;;;6.80;93.00;;;;;;4993704;28;20432;-72
2020/12/11 11:55:30;;;;;;;27.08;11.52;;;6.70;93.10;;;;;;4993025;28;20030;-72
2020/12/11 11:57:56;;;;;;;25.50;13.57;;;6.70;93.10;;;;;;4993631;28;20117;-71
2020/12/11 12:00:22;;;;;;;20.33;10.40;;;6.70;93.10;;;;;;4993543;28;20039;-72
2020/12/11 12:02:48;;;;;;;20.38;9.80;;;6.70;93.30;;;;;;4995159;28;20049;-71
2020/12/11 12:05:14;;;;;;;22.52;10.15;;;6.60;93.20;;;;;;4992477;28;20042;-73
2020/12/11 12:07:40;;;;;;;20.85;10.10;;;6.60;93.10;;;;;;4993456;28;20034;-71
2020/12/11 12:10:10;;;;;;;23.65;11.45;;;6.50;93.10;;;;;;4993461;28;20117;-70
2020/12/11 12:12:42;;;;;;;22.65;11.23;;;6.60;93.40;;;;;;4993396;28;20097;-72
2020/12/11 12:15:14;;;;;;;21.60;10.32;;;6.50;93.30;;;;;;4994141;28;20038;-73
2020/12/11 12:17:45;;;;;;;21.08;10.50;;;6.50;93.40;;;;;;4992348;28;20050;-73
2020/12/11 12:20:18;;;;;;;28.70;11.98;;;6.50;93.40;;;;;;4993379;28;20460;-74
2020/12/11 12:28:28;;;;;;;24.33;11.35;;;6.50;93.40;;;;;;4992588;28;20095;-69
2020/12/11 12:30:54;;;;;;;28.33;12.20;;;6.50;93.50;;;;;;4993549;28;20464;-67
2020/12/11 12:43:51;;;;;;;23.92;10.95;;;6.50;93.20;;;;;;4993230;28;20480;-73
2020/12/11 12:46:16;;;;;;;22.40;10.32;;;6.40;93.50;;;;;;4992224;28;20038;-71
2020/12/11 12:48:42;;;;;;;23.98;11.18;;;6.40;93.10;;;;;;4992776;28;20023;-72
2020/12/11 12:51:09;;;;;;;21.75;10.60;;;6.40;93.20;;;;;;4993436;28;20093;-70
2020/12/11 12:53:36;;;;;;;23.85;11.02;;;6.50;93.30;;;;;;4992803;28;20050;-70
2020/12/11 12:58:52;;;;;;;26.10;11.75;;;6.50;93.40;;;;;;4993087;28;20069;-71
2020/12/11 13:01:32;;;;;;;26.10;12.63;;;6.50;93.40;;;;;;4992732;28;20034;-69
2020/12/11 13:06:23;;;;;;;25.08;10.10;;;6.60;93.30;;;;;;4992843;28;20064;-71
2020/12/11 13:08:49;;;;;;;25.80;10.98;;;6.60;93.30;;;;;;4994144;28;20022;-79
2020/12/11 13:11:15;;;;;;;24.33;11.35;;;6.60;93.10;;;;;;4992226;28;20035;-69
2020/12/11 13:13:41;;;;;;;22.88;10.80;;;6.50;93.10;;;;;;4991520;28;20076;-68
2020/12/11 13:16:06;;;;;;;21.65;10.88;;;6.50;93.20;;;;;;4991645;28;20034;-69
2020/12/11 13:18:32;;;;;;;22.60;10.50;;;6.50;93.20;;;;;;4992298;28;20094;-69
2020/12/11 13:21:03;;;;;;;25.65;10.63;;;6.50;93.20;;;;;;4993827;28;20037;-73
2020/12/11 13:29:00;;;;;;;27.88;11.95;;;6.60;93.70;;;;;;4992048;28;20088;-75
2020/12/11 13:31:26;;;;;;;21.05;10.55;;;6.60;93.60;;;;;;4991289;28;20480;-72
2020/12/11 13:33:52;;;;;;;22.67;10.57;;;6.50;93.30;;;;;;4992184;28;20041;-73
2020/12/11 13:36:18;;;;;;;22.33;9.88;;;6.60;93.40;;;;;;4992037;28;20062;-70
2020/12/11 13:38:44;;;;;;;22.42;10.48;;;6.60;93.50;;;;;;4993772;28;20104;-72
2020/12/11 13:41:11;;;;;;;27.23;11.23;;;6.50;93.50;;;;;;4991943;28;20583;-73
2020/12/11 13:43:37;;;;;;;21.73;10.57;;;6.60;93.60;;;;;;4992264;28;20088;-78